Time;durP1;ratioP1;P1;durP2;ratioP2;P2;SDS_P1;SDS_P2;PMS_P1;PMS_P2;Temp;Humidity;BMP_temperature;BMP_pressure;BME280_temperature;BME280_humidity;BME280_pressure;Samples;Min_cycle;Max_cycle;Signal;HPM_P1;HPM_P2
2021/05/22 00:00:58;;;;;;;1.00;0.32;;;;;;;6.65;83.58;99487.63;5014961;28;20042;-86
2021/05/22 00:03:26;;;;;;;0.20;0.20;;;;;;;6.74;83.28;99490.50;5012978;28;20064;-86
2021/05/22 00:05:59;;;;;;;0.95;0.40;;;;;;;6.59;83.32;99484.16;5017506;28;20049;-87
2021/05/22 00:08:32;;;;;;;0.30;0.30;;;;;;;6.31;83.69;99439.75;5029981;28;20046;-86
2021/05/22 00:11:04;;;;;;;0.32;0.32;;;;;;;6.57;83.97;99480.94;5021894;28;20053;-86
2021/05/22 00:13:43;;;;;;;0.30;0.20;;;;;;;6.36;83.90;99457.84;5057523;28;20391;-86
2021/05/22 00:16:17;;;;;;;0.30;0.30;;;;;;;6.54;84.32;99476.06;5020083;28;20760;-87
2021/05/22 00:18:49;;;;;;;0.20;0.20;;;;;;;6.47;83.85;99465.56;5023761;28;20045;-87
2021/05/22 00:21:22;;;;;;;0.30;0.30;;;;;;;6.50;83.66;99475.03;5051209;28;20044;-87
2021/05/22 00:23:55;;;;;;;0.73;0.30;;;;;;;6.35;84.08;99462.44;5052535;28;20052;-87
2021/05/22 00:31:54;;;;;;;0.30;0.30;;;;;;;6.40;84.81;99467.00;5061076;28;20043;-86
2021/05/22 00:34:28;;;;;;;0.30;0.30;;;;;;;6.41;84.83;99468.63;5052808;28;20060;-86
2021/05/22 00:37:01;;;;;;;0.30;0.22;;;;;;;6.28;84.59;99456.53;5053067;28;20041;-87
2021/05/22 00:39:28;;;;;;;0.32;0.30;;;;;;;6.38;85.02;99463.75;5053090;28;20516;-86
2021/05/22 00:41:56;;;;;;;0.38;0.30;;;;;;;6.26;84.57;99459.53;5052460;28;20681;-86
2021/05/22 00:44:31;;;;;;;0.30;0.30;;;;;;;6.26;84.45;99454.13;5052768;28;20493;-86
2021/05/22 00:46:59;;;;;;;0.50;0.40;;;;;;;6.20;84.64;99451.72;5053984;28;20044;-86
2021/05/22 00:49:27;;;;;;;;;;;;;;;6.24;84.96;99455.50;5053095;28;20052;-87
2021/05/22 00:51:55;;;;;;;0.45;0.35;;;;;;;6.22;84.80;99447.66;5052607;28;19925;-87
2021/05/22 00:54:28;;;;;;;0.52;0.30;;;;;;;6.13;85.73;99455.56;5053877;28;20056;-87
2021/05/22 00:57:01;;;;;;;0.32;0.30;;;;;;;6.20;85.16;99457.97;5053913;28;20045;-87
2021/05/22 00:59:40;;;;;;;0.82;0.40;;;;;;;6.26;84.98;99462.22;5052567;28;20041;-86
2021/05/22 01:02:20;;;;;;;0.68;0.30;;;;;;;6.17;85.36;99472.00;5053019;28;20047;-87
2021/05/22 01:04:49;;;;;;;0.30;0.30;;;;;;;6.15;85.72;99449.09;5039923;28;20065;-87
2021/05/22 01:08:10;;;;;;;0.32;0.30;;;;;;;6.27;85.88;99463.84;5019170;28;20050;-87
2021/05/22 01:10:44;;;;;;;0.75;0.30;;;;;;;6.25;86.03;99451.72;5013266;28;20046;-87
2021/05/22 01:13:13;;;;;;;0.65;0.30;;;;;;;6.30;85.77;99457.88;5012428;28;20050;-86
2021/05/22 01:15:44;;;;;;;0.30;0.30;;;;;;;6.29;84.94;99458.97;5017372;28;20061;-87
2021/05/22 01:18:17;;;;;;;0.47;0.30;;;;;;;6.24;85.34;99445.50;5012190;28;20534;-86
2021/05/22 01:20:56;;;;;;;0.35;0.30;;;;;;;6.26;85.54;99459.53;5022952;28;20041;-86
2021/05/22 01:23:32;;;;;;;0.20;0.20;;;;;;;6.22;84.97;99450.38;5030864;28;20073;-87
2021/05/22 01:26:06;;;;;;;0.73;0.35;;;;;;;6.26;84.92;99447.94;5025883;28;20049;-87
2021/05/22 01:28:40;;;;;;;0.70;0.40;;;;;;;6.13;85.63;99438.53;5012087;28;20453;-87
2021/05/22 01:31:11;;;;;;;0.25;0.25;;;;;;;6.12;85.25;99428.84;5021805;28;20066;-87
2021/05/22 01:33:39;;;;;;;0.30;0.30;;;;;;;6.25;84.92;99451.72;5012131;28;20081;-86
2021/05/22 01:36:12;;;;;;;0.30;0.30;;;;;;;6.22;85.34;99446.88;5012996;28;20046;-87
2021/05/22 01:38:45;;;;;;;0.30;0.30;;;;;;;6.18;84.89;99452.03;5010939;28;20046;-86
2021/05/22 01:41:18;;;;;;;0.40;0.35;;;;;;;6.06;84.70;99430.78;5016761;28;20064;-87
2021/05/22 01:43:55;;;;;;;0.20;0.20;;;;;;;6.06;85.51;99433.47;5012707;28;20584;-87
2021/05/22 01:46:30;;;;;;;0.30;0.30;;;;;;;6.10;84.85;99453.44;5011259;28;20779;-87
2021/05/22 01:49:04;;;;;;;0.40;0.35;;;;;;;6.04;84.96;99449.16;5012117;28;20053;-87
2021/05/22 01:51:39;;;;;;;0.85;0.40;;;;;;;6.01;85.09;99447.00;5011760;28;20054;-87
2021/05/22 01:54:12;;;;;;;0.30;0.30;;;;;;;6.06;84.52;99452.38;5027825;28;20057;-87
2021/05/22 01:56:46;;;;;;;0.47;0.40;;;;;;;6.12;84.01;99442.34;5011834;28;20045;-86
2021/05/22 01:59:19;;;;;;;0.88;0.35;;;;;;;6.07;84.49;99440.47;5011599;28;20050;-87
2021/05/22 02:01:52;;;;;;;0.30;0.22;;;;;;;5.78;84.00;99407.97;5012783;28;20076;-86
2021/05/22 02:04:29;;;;;;;0.40;0.35;;;;;;;6.06;84.10;99448.84;5011664;28;20049;-87
2021/05/22 02:07:08;;;;;;;0.75;0.40;;;;;;;6.01;83.71;99425.41;5022218;28;20053;-87
2021/05/22 02:09:38;;;;;;;0.60;0.35;;;;;;;6.06;83.97;99441.59;5022509;28;20050;-86
2021/05/22 02:12:44;;;;;;;0.40;0.35;;;;;;;6.02;83.52;99440.53;5040417;28;20063;-87
2021/05/22 02:15:14;;;;;;;0.30;0.30;;;;;;;6.05;83.15;99444.53;5031538;28;20041;-87
2021/05/22 02:17:48;;;;;;;0.30;0.30;;;;;;;6.00;83.11;99434.59;5026126;28;20046;-87
2021/05/22 02:20:23;;;;;;;0.30;0.30;;;;;;;5.87;82.58;99417.09;5011437;28;20057;-87
2021/05/22 02:22:56;;;;;;;0.77;0.47;;;;;;;5.91;83.16;99439.75;5031430;28;20524;-86
2021/05/22 02:25:29;;;;;;;0.28;0.28;;;;;;;5.94;83.45;99446.47;5025610;28;20056;-87
2021/05/22 02:28:08;;;;;;;0.30;0.30;;;;;;;6.00;83.22;99436.50;5037242;28;20040;-86
2021/05/22 02:30:42;;;;;;;0.60;0.40;;;;;;;5.89;83.16;99430.31;5017985;28;20605;-87
2021/05/22 02:33:19;;;;;;;0.80;0.40;;;;;;;5.90;82.79;99435.44;5017427;28;20045;-87
2021/05/22 02:35:54;;;;;;;0.40;0.28;;;;;;;5.93;83.91;99442.16;5030296;28;20060;-87
2021/05/22 02:38:30;;;;;;;0.22;0.22;;;;;;;5.92;82.82;99440.53;5032282;28;20036;-87
2021/05/22 02:41:01;;;;;;;0.73;0.35;;;;;;;5.93;83.38;99442.97;5052835;28;20152;-86
2021/05/22 02:43:37;;;;;;;0.40;0.40;;;;;;;5.84;84.09;99447.34;5035037;28;20068;-87
2021/05/22 02:46:11;;;;;;;0.30;0.28;;;;;;;5.84;83.58;99441.94;5034274;28;20049;-87
2021/05/22 02:48:39;;;;;;;0.32;0.30;;;;;;;5.74;83.72;99437.38;5031151;28;20057;-86
2021/05/22 02:51:16;;;;;;;0.52;0.32;;;;;;;5.77;83.96;99433.34;5014705;28;20061;-87
2021/05/22 02:53:49;;;;;;;0.47;0.35;;;;;;;5.71;83.09;99437.16;5016203;28;20042;-86
2021/05/22 02:56:18;;;;;;;0.50;0.30;;;;;;;5.69;84.04;99431.22;5015845;28;20041;-87
2021/05/22 02:58:54;;;;;;;0.60;0.30;;;;;;;5.65;84.00;99439.09;5026774;28;20050;-86
2021/05/22 03:01:27;;;;;;;0.30;0.30;;;;;;;5.68;83.56;99438.50;5014468;28;20066;-86
2021/05/22 03:04:01;;;;;;;0.30;0.30;;;;;;;5.66;84.68;99439.88;5014303;28;20053;-86
2021/05/22 03:06:34;;;;;;;0.30;0.30;;;;;;;5.64;83.87;99434.75;5031361;28;20064;-86
2021/05/22 03:09:06;;;;;;;0.35;0.35;;;;;;;5.70;84.78;99439.03;5042155;28;20045;-87
2021/05/22 03:11:34;;;;;;;0.93;0.45;;;;;;;5.75;84.59;99433.63;5035756;28;20046;-87
2021/05/22 03:14:03;;;;;;;;;;;;;;;5.83;84.12;99426.84;5023486;28;20062;-87
2021/05/22 03:16:36;;;;;;;0.30;0.30;;;;;;;5.84;84.67;99423.06;5014605;28;19928;-87
2021/05/22 03:19:04;;;;;;;0.35;0.30;;;;;;;5.83;84.56;99420.59;5014618;28;20058;-87
2021/05/22 03:21:37;;;;;;;0.38;0.30;;;;;;;5.95;84.76;99427.31;5014540;28;20097;-86
2021/05/22 03:24:05;;;;;;;0.65;0.30;;;;;;;5.95;84.47;99413.78;5016043;28;20054;-87
2021/05/22 03:26:38;;;;;;;0.50;0.30;;;;;;;5.97;84.02;99418.91;5015099;28;20682;-87
2021/05/22 03:29:12;;;;;;;0.50;0.35;;;;;;;5.83;84.30;99410.63;5015469;28;20048;-86
2021/05/22 03:31:44;;;;;;;0.50;0.43;;;;;;;5.88;84.55;99424.09;5012799;28;20053;-87
2021/05/22 03:34:12;;;;;;;0.45;0.38;;;;;;;5.85;84.13;99418.44;5014260;28;20057;-86
2021/05/22 03:36:45;;;;;;;0.30;0.30;;;;;;;5.87;84.50;99425.19;5018747;28;20033;-86
2021/05/22 03:39:13;;;;;;;;;;;;;;;5.83;84.18;99421.44;5034554;28;20770;-86
2021/05/22 03:41:40;;;;;;;0.35;0.32;;;;;;;5.53;84.15;99371.94;5034289;28;19925;-87
2021/05/22 03:44:14;;;;;;;0.20;0.20;;;;;;;5.89;84.26;99420.31;5030263;28;20492;-85
2021/05/22 03:46:46;;;;;;;0.30;0.30;;;;;;;5.79;84.42;99420.38;5033812;28;20054;-86
2021/05/22 03:49:19;;;;;;;0.95;0.30;;;;;;;5.84;84.17;99419.53;5034785;28;20038;-87
2021/05/22 03:51:52;;;;;;;0.40;0.40;;;;;;;5.86;84.78;99420.88;5033176;28;20058;-86
2021/05/22 03:54:19;;;;;;;0.43;0.40;;;;;;;5.81;85.04;99422.78;5033844;28;20053;-86
2021/05/22 03:56:52;;;;;;;0.20;0.20;;;;;;;5.69;84.69;99404.22;5033796;28;20056;-86
2021/05/22 03:59:26;;;;;;;0.25;0.20;;;;;;;5.84;85.07;99417.66;5033541;28;20050;-86
2021/05/22 04:01:59;;;;;;;0.30;0.30;;;;;;;5.90;84.11;99411.13;5032536;28;20682;-86
2021/05/22 04:04:26;;;;;;;0.30;0.30;;;;;;;5.88;84.96;99417.88;5033424;28;20718;-86
2021/05/22 04:06:59;;;;;;;0.47;0.30;;;;;;;5.76;84.64;99383.94;5033038;28;20041;-86
2021/05/22 04:09:32;;;;;;;0.40;0.30;;;;;;;5.87;84.59;99397.38;5021192;28;20053;-86
2021/05/22 04:12:00;;;;;;;0.30;0.30;;;;;;;6.02;84.12;99412.69;5029816;28;20073;-86
2021/05/22 04:14:59;;;;;;;0.47;0.32;;;;;;;6.07;84.11;99404.56;5028933;28;20425;-86
2021/05/22 04:17:32;;;;;;;0.38;0.30;;;;;;;6.07;84.64;99394.56;5032861;28;20065;-87
2021/05/22 04:20:06;;;;;;;0.32;0.30;;;;;;;6.18;84.56;99394.50;5032913;28;20049;-86
2021/05/22 04:22:38;;;;;;;0.25;0.25;;;;;;;6.22;84.10;99399.03;5032753;28;20046;-87
2021/05/22 04:25:12;;;;;;;1.17;0.40;;;;;;;6.28;84.18;99395.22;5034397;28;20056;-86
2021/05/22 04:27:40;;;;;;;0.47;0.30;;;;;;;6.36;84.10;99399.19;5034158;28;20498;-86
2021/05/22 04:30:09;;;;;;;0.35;0.30;;;;;;;6.38;83.52;99388.09;5033053;28;20490;-87
2021/05/22 04:32:42;;;;;;;0.52;0.40;;;;;;;6.62;82.89;99399.78;5031966;28;20054;-87
2021/05/22 04:35:16;;;;;;;0.70;0.30;;;;;;;6.66;82.95;99396.50;5014427;28;20053;-87
2021/05/22 04:37:44;;;;;;;0.25;0.22;;;;;;;6.77;82.40;99393.41;5043356;28;20045;-87
2021/05/22 04:40:17;;;;;;;0.47;0.30;;;;;;;6.89;82.32;99397.63;5039494;28;20056;-86
2021/05/22 04:42:50;;;;;;;0.70;0.43;;;;;;;7.00;80.58;99395.63;5031468;28;20045;-86
2021/05/22 04:45:23;;;;;;;0.20;0.20;;;;;;;7.07;80.96;99405.00;5036010;28;20042;-87
2021/05/22 04:47:51;;;;;;;0.30;0.30;;;;;;;7.29;79.85;99392.84;5036627;28;20045;-85
2021/05/22 04:50:19;;;;;;;0.40;0.30;;;;;;;7.29;79.04;99388.25;5047220;28;20075;-87
2021/05/22 04:52:52;;;;;;;0.73;0.43;;;;;;;7.41;80.43;99397.84;5035814;28;20057;-87
2021/05/22 04:55:25;;;;;;;0.30;0.30;;;;;;;7.56;78.79;99404.97;5028596;28;20057;-87
2021/05/22 04:57:58;;;;;;;0.30;0.30;;;;;;;7.64;79.26;99380.75;5015274;28;20037;-87
2021/05/22 05:00:36;;;;;;;0.85;0.40;;;;;;;7.89;78.69;99399.66;5030526;28;20045;-86
2021/05/22 05:03:35;;;;;;;0.40;0.30;;;;;;;8.45;77.37;99408.81;5035842;28;20045;-87
2021/05/22 05:06:09;;;;;;;0.43;0.40;;;;;;;9.26;73.19;99399.50;5042788;28;20413;-88
2021/05/22 05:08:37;;;;;;;0.40;0.38;;;;;;;10.02;68.91;99363.59;5013698;28;20049;-87
2021/05/22 05:11:08;;;;;;;0.40;0.40;;;;;;;11.93;64.15;99375.53;5016415;28;20048;-86
2021/05/22 05:13:40;;;;;;;1.13;0.40;;;;;;;11.83;63.10;99371.22;5038173;28;20057;-87
2021/05/22 05:16:14;;;;;;;0.55;0.40;;;;;;;12.17;62.25;99393.38;5030919;28;20045;-87
2021/05/22 05:19:46;;;;;;;0.95;0.40;;;;;;;13.06;62.49;99404.56;5021781;28;20041;-88
2021/05/22 05:22:20;;;;;;;0.70;0.40;;;;;;;13.56;58.15;99397.59;5010885;28;20053;-88
2021/05/22 05:24:48;;;;;;;0.40;0.40;;;;;;;13.89;58.32;99385.94;5011231;28;20049;-88
2021/05/22 05:27:21;;;;;;;0.40;0.40;;;;;;;13.35;57.65;99388.50;5021350;28;20053;-88
2021/05/22 05:29:50;;;;;;;0.68;0.40;;;;;;;13.97;56.37;99378.78;5011904;28;20049;-86
2021/05/22 05:32:24;;;;;;;0.70;0.43;;;;;;;13.28;58.99;99383.56;5046462;28;20059;-86
2021/05/22 05:35:22;;;;;;;0.30;0.30;;;;;;;12.52;60.83;99380.47;5041710;28;20045;-86
2021/05/22 05:37:55;;;;;;;0.40;0.40;;;;;;;11.44;63.76;99374.88;5011919;28;20120;-87
2021/05/22 05:40:23;;;;;;;0.32;0.30;;;;;;;11.44;65.71;99385.78;5011943;28;20066;-86
2021/05/22 05:42:56;;;;;;;0.85;0.63;;;;;;;10.97;67.71;99387.06;5016307;28;20045;-86
2021/05/22 05:45:54;;;;;;;0.50;0.40;;;;;;;11.12;69.43;99379.59;5027082;28;20049;-87
2021/05/22 05:48:30;;;;;;;0.28;0.28;;;;;;;11.31;66.44;99376.59;5022119;28;20041;-87
2021/05/22 05:51:56;;;;;;;0.30;0.30;;;;;;;11.32;66.01;99368.09;5036022;28;20417;-87
2021/05/22 05:54:58;;;;;;;0.52;0.20;;;;;;;11.26;66.65;99380.28;5016324;28;20049;-86
2021/05/22 05:57:37;;;;;;;1.10;0.40;;;;;;;11.17;66.07;99376.72;5015077;28;20506;-87
2021/05/22 06:00:11;;;;;;;0.50;0.40;;;;;;;11.03;64.94;99347.69;5035391;28;20054;-86
2021/05/22 06:02:43;;;;;;;0.43;0.43;;;;;;;11.18;68.70;99370.94;5018731;28;20517;-86
2021/05/22 06:05:18;;;;;;;0.55;0.40;;;;;;;11.26;65.13;99369.38;5020064;28;20041;-86
2021/05/22 06:07:51;;;;;;;0.45;0.40;;;;;;;11.35;64.38;99367.47;5029662;28;20057;-86
2021/05/22 06:10:24;;;;;;;0.77;0.50;;;;;;;11.58;66.02;99370.06;5016012;28;20486;-86
2021/05/22 06:12:57;;;;;;;1.30;0.50;;;;;;;11.50;63.96;99368.97;5027831;28;20045;-85
2021/05/22 06:15:48;;;;;;;0.70;0.40;;;;;;;11.33;63.54;99375.16;5020824;28;20639;-85
2021/05/22 06:18:17;;;;;;;0.47;0.32;;;;;;;11.19;64.84;99375.28;5027081;28;20080;-85
2021/05/22 06:20:50;;;;;;;0.35;0.35;;;;;;;10.94;66.78;99376.81;5023547;28;20381;-87
2021/05/22 06:24:18;;;;;;;0.90;0.40;;;;;;;11.01;67.15;99371.69;5030872;28;20061;-87
2021/05/22 06:26:46;;;;;;;0.65;0.50;;;;;;;10.87;63.79;99369.09;5031388;28;20060;-87
2021/05/22 06:29:49;;;;;;;0.35;0.35;;;;;;;10.95;63.34;99377.59;5019461;28;20049;-86
2021/05/22 06:32:22;;;;;;;0.65;0.50;;;;;;;10.89;63.30;99371.50;5024996;28;20077;-86
2021/05/22 06:34:55;;;;;;;0.68;0.40;;;;;;;10.95;65.45;99370.25;5018857;28;20056;-87
2021/05/22 06:37:29;;;;;;;0.50;0.40;;;;;;;11.05;65.21;99371.88;5023065;28;20061;-86
2021/05/22 06:39:57;;;;;;;2.15;0.50;;;;;;;11.34;64.59;99378.69;5029015;28;20061;-87
2021/05/22 06:42:34;;;;;;;0.32;0.32;;;;;;;11.29;62.13;99354.31;5012034;28;20061;-86
2021/05/22 06:48:49;;;;;;;1.30;0.50;;;;;;;11.28;65.18;99374.50;5013017;28;20053;-85
2021/05/22 06:51:32;;;;;;;1.60;0.60;;;;;;;11.74;62.52;99373.94;5019796;28;20054;-88
2021/05/22 06:54:12;;;;;;;0.30;0.30;;;;;;;12.13;62.15;99379.59;5020921;28;20054;-86
2021/05/22 06:57:13;;;;;;;0.43;0.35;;;;;;;12.13;60.46;99374.13;5020257;28;20398;-85
2021/05/22 06:59:46;;;;;;;2.58;0.68;;;;;;;12.05;61.97;99366.75;5017749;28;20406;-85
2021/05/22 07:02:14;;;;;;;1.33;0.50;;;;;;;11.91;63.22;99362.22;5023835;28;20494;-86
2021/05/22 07:04:47;;;;;;;0.65;0.40;;;;;;;12.05;64.09;99377.66;5027132;28;20056;-85
2021/05/22 07:07:14;;;;;;;;;;;;;;;11.85;62.27;99362.75;5015268;28;20054;-86
2021/05/22 07:09:48;;;;;;;0.30;0.30;;;;;;;11.94;63.48;99369.00;5013726;28;19921;-86
2021/05/22 07:12:15;;;;;;;1.50;0.60;;;;;;;11.95;61.09;99369.81;5031453;28;20076;-84
2021/05/22 07:14:48;;;;;;;0.80;0.43;;;;;;;12.07;59.19;99365.31;5032192;28;20046;-87
2021/05/22 07:17:16;;;;;;;0.57;0.40;;;;;;;12.41;63.16;99358.22;5030952;28;20068;-87
2021/05/22 07:19:49;;;;;;;1.90;0.40;;;;;;;12.66;60.14;99366.63;5016035;28;20053;-88
2021/05/22 07:23:20;;;;;;;0.40;0.40;;;;;;;12.90;57.77;99363.34;5021510;28;20058;-88
2021/05/22 07:26:20;;;;;;;0.52;0.30;;;;;;;13.15;61.60;99352.63;5042192;28;20054;-89
2021/05/22 07:28:48;;;;;;;0.68;0.50;;;;;;;12.71;60.52;99355.53;5025377;28;20042;-87
2021/05/22 07:31:25;;;;;;;0.35;0.30;;;;;;;12.26;58.68;99358.69;5035736;28;20045;-87
2021/05/22 07:33:57;;;;;;;3.28;0.47;;;;;;;12.26;61.28;99369.63;5021655;28;20046;-88
2021/05/22 07:36:25;;;;;;;;;;;;;;;12.25;61.10;99360.63;5041840;28;20053;-89
2021/05/22 07:38:57;;;;;;;0.35;0.35;;;;;;;12.08;62.32;99308.84;5035448;28;19992;-89
2021/05/22 07:41:31;;;;;;;1.27;0.30;;;;;;;12.07;62.48;99323.63;5029039;28;20057;-88
2021/05/22 07:44:04;;;;;;;0.30;0.30;;;;;;;11.98;61.62;99353.59;5035529;28;20457;-89
2021/05/22 07:46:57;;;;;;;0.82;0.30;;;;;;;12.16;61.72;99362.56;5019404;28;20041;-92
2021/05/22 07:49:54;;;;;;;0.52;0.35;;;;;;;11.87;62.39;99371.38;5027348;28;20042;-87
2021/05/22 07:55:44;;;;;;;0.38;0.32;;;;;;;11.71;59.87;99360.97;5022731;28;19928;-88
2021/05/22 07:58:17;;;;;;;0.50;0.40;;;;;;;11.71;63.38;99360.97;5020639;28;20514;-86
2021/05/22 08:00:50;;;;;;;0.40;0.40;;;;;;;11.98;62.30;99363.72;5020884;28;20050;-87
2021/05/22 08:03:17;;;;;;;;;;;;;;;11.99;61.25;99370.78;5018890;28;20398;-86
2021/05/22 08:05:45;;;;;;;;;;;;;;;12.05;62.94;99364.03;5023350;28;19922;-87
2021/05/22 08:08:28;;;;;;;0.95;0.40;;;;;;;12.02;60.85;99351.84;5028899;28;19932;-87
2021/05/22 08:10:55;;;;;;;0.20;0.20;;;;;;;12.17;62.19;99360.66;5024429;28;20046;-87
2021/05/22 08:14:23;;;;;;;0.30;0.30;;;;;;;12.03;60.16;99350.72;5027115;28;20058;-87
2021/05/22 08:16:52;;;;;;;0.65;0.40;;;;;;;11.93;62.16;99370.09;5022023;28;20050;-87
2021/05/22 08:23:50;;;;;;;0.43;0.32;;;;;;;11.56;60.39;99356.78;5020762;28;20037;-87
2021/05/22 08:26:18;;;;;;;0.70;0.30;;;;;;;11.59;61.00;99358.06;5026092;28;20049;-87
2021/05/22 08:28:47;;;;;;;0.68;0.43;;;;;;;11.63;61.62;99358.22;5030560;28;20068;-87
2021/05/22 08:31:15;;;;;;;0.30;0.30;;;;;;;11.80;60.70;99363.69;5013754;28;20065;-86
2021/05/22 08:33:52;;;;;;;0.30;0.30;;;;;;;11.92;58.69;99360.31;5020220;28;20044;-88
2021/05/22 08:36:31;;;;;;;0.30;0.30;;;;;;;11.95;58.65;99346.06;5035372;28;20041;-86
2021/05/22 08:39:50;;;;;;;0.30;0.30;;;;;;;12.08;60.78;99360.66;5028811;28;20061;-89
2021/05/22 08:42:25;;;;;;;0.32;0.30;;;;;;;11.76;60.49;99356.47;5033629;28;20064;-89
2021/05/22 08:45:06;;;;;;;0.57;0.30;;;;;;;11.65;60.84;99356.78;5031709;28;20060;-88
2021/05/22 08:47:48;;;;;;;0.25;0.25;;;;;;;11.45;59.61;99363.66;5030525;28;20051;-86
2021/05/22 08:50:51;;;;;;;0.70;0.40;;;;;;;11.48;62.95;99359.50;5029989;28;20057;-86
2021/05/22 08:53:27;;;;;;;0.30;0.30;;;;;;;11.65;60.54;99362.22;5033935;28;20500;-89
2021/05/22 08:56:00;;;;;;;0.60;0.40;;;;;;;11.85;60.09;99362.75;5029227;28;20052;-87
2021/05/22 08:58:27;;;;;;;;;;;;;;;12.23;62.89;99376.50;5031656;28;20061;-86
2021/05/22 09:01:05;;;;;;;0.25;0.25;;;;;;;12.55;59.96;99360.75;5031197;28;19929;-86
2021/05/22 09:03:33;;;;;;;0.25;0.25;;;;;;;12.64;61.70;99354.47;5029770;28;20057;-86
2021/05/22 09:06:11;;;;;;;0.22;0.20;;;;;;;12.34;59.30;99348.91;5028385;28;20057;-86
2021/05/22 09:08:59;;;;;;;0.45;0.38;;;;;;;12.26;60.89;99361.44;5031421;28;20049;-87
2021/05/22 09:11:56;;;;;;;0.75;0.30;;;;;;;12.39;61.08;99367.84;5031107;28;20056;-87
2021/05/22 09:14:48;;;;;;;0.30;0.30;;;;;;;12.37;60.29;99378.28;5033632;28;20053;-86
2021/05/22 09:17:22;;;;;;;0.40;0.32;;;;;;;12.02;62.59;99364.69;5029709;28;20052;-88
2021/05/22 09:20:10;;;;;;;0.30;0.30;;;;;;;12.08;63.26;99383.28;5028990;28;20045;-88
2021/05/22 09:22:44;;;;;;;0.30;0.30;;;;;;;11.95;63.08;99370.63;5032862;28;20052;-88
2021/05/22 09:25:26;;;;;;;1.42;0.32;;;;;;;12.03;63.75;99383.44;5030245;28;20061;-86
2021/05/22 09:27:59;;;;;;;0.50;0.40;;;;;;;11.57;64.00;99355.66;5031612;28;20519;-88
2021/05/22 09:30:41;;;;;;;0.20;0.20;;;;;;;11.85;63.31;99388.06;5033373;28;20044;-87
2021/05/22 09:33:16;;;;;;;0.30;0.30;;;;;;;11.78;66.61;99381.47;5032410;28;20057;-88
2021/05/22 09:35:51;;;;;;;0.30;0.30;;;;;;;11.64;64.45;99392.53;5026403;28;20053;-88
2021/05/22 09:38:35;;;;;;;0.30;0.30;;;;;;;11.84;65.82;99382.94;5034487;28;20059;-87
2021/05/22 09:41:16;;;;;;;0.45;0.30;;;;;;;12.01;63.27;99388.41;5031216;28;20048;-88
2021/05/22 09:44:04;;;;;;;0.30;0.30;;;;;;;12.12;64.02;99394.34;5028809;28;20106;-89
2021/05/22 09:46:58;;;;;;;0.30;0.30;;;;;;;11.98;64.05;99394.50;5028692;28;20041;-87
2021/05/22 09:49:33;;;;;;;0.20;0.20;;;;;;;11.98;68.21;99397.22;5029492;28;20057;-89
2021/05/22 09:52:09;;;;;;;0.45;0.20;;;;;;;12.00;65.10;99395.00;5031105;28;20041;-88
2021/05/22 09:54:46;;;;;;;1.75;0.40;;;;;;;12.03;66.44;99399.00;5032564;28;20053;-88
2021/05/22 09:57:20;;;;;;;0.45;0.40;;;;;;;11.97;66.77;99400.28;5029388;28;20057;-89
2021/05/22 10:00:24;;;;;;;0.35;0.30;;;;;;;11.76;65.86;99413.72;5030142;28;20513;-86
2021/05/22 10:03:22;;;;;;;0.20;0.20;;;;;;;11.41;67.61;99403.53;5031731;28;20052;-87
2021/05/22 10:05:55;;;;;;;0.63;0.30;;;;;;;11.12;68.07;99423.16;5027603;28;20053;-89
2021/05/22 10:08:29;;;;;;;0.20;0.20;;;;;;;10.93;69.96;99432.34;5030222;28;20053;-89
2021/05/22 10:10:58;;;;;;;0.32;0.32;;;;;;;10.56;73.51;99423.50;5028442;28;20576;-87
2021/05/22 10:13:33;;;;;;;0.30;0.30;;;;;;;10.38;76.36;99438.91;5028082;28;20057;-87
2021/05/22 10:16:06;;;;;;;0.47;0.30;;;;;;;10.02;74.47;99393.50;5031501;28;20037;-87
2021/05/22 10:18:49;;;;;;;0.30;0.30;;;;;;;10.42;77.14;99439.09;5029851;28;20060;-88
2021/05/22 10:21:18;;;;;;;0.20;0.20;;;;;;;10.40;76.81;99435.88;5030464;28;20061;-87
2021/05/22 10:23:57;;;;;;;0.20;0.20;;;;;;;10.46;78.19;99453.69;5033497;28;20050;-88
2021/05/22 10:26:26;;;;;;;0.73;0.40;;;;;;;10.78;78.13;99435.47;5035477;28;20057;-86
2021/05/22 10:29:01;;;;;;;0.80;0.40;;;;;;;10.79;77.61;99437.88;5033125;28;20053;-87
2021/05/22 10:31:40;;;;;;;0.50;0.40;;;;;;;10.76;76.40;99449.41;5031443;28;20049;-88
2021/05/22 10:34:13;;;;;;;0.47;0.40;;;;;;;10.63;74.90;99450.28;5024982;28;20064;-89
2021/05/22 10:36:50;;;;;;;0.30;0.30;;;;;;;10.57;77.93;99448.81;5030391;28;20052;-87
2021/05/22 10:39:39;;;;;;;0.68;0.40;;;;;;;10.75;77.76;99458.66;5026894;28;20441;-87
2021/05/22 10:42:48;;;;;;;0.50;0.30;;;;;;;10.85;76.39;99452.16;5027133;28;20045;-86
2021/05/22 10:45:33;;;;;;;0.77;0.40;;;;;;;10.96;77.18;99450.78;5028903;28;20061;-86
2021/05/22 10:48:03;;;;;;;0.30;0.30;;;;;;;11.13;76.69;99446.53;5031518;28;20064;-87
2021/05/22 10:50:44;;;;;;;0.30;0.30;;;;;;;11.21;76.95;99443.88;5031104;28;20060;-86
2021/05/22 10:53:34;;;;;;;0.30;0.30;;;;;;;10.85;75.90;99447.53;5033412;28;20049;-86
2021/05/22 10:56:15;;;;;;;0.20;0.20;;;;;;;10.72;77.06;99446.47;5029947;28;20061;-86
2021/05/22 10:59:16;;;;;;;1.17;0.30;;;;;;;10.64;77.64;99430.13;5032239;28;20059;-87
2021/05/22 11:01:52;;;;;;;0.20;0.20;;;;;;;10.85;77.92;99446.72;5027244;28;20048;-88
2021/05/22 11:04:37;;;;;;;0.40;0.40;;;;;;;10.86;78.35;99440.16;5034587;28;20053;-88
2021/05/22 11:07:41;;;;;;;0.25;0.25;;;;;;;10.85;78.11;99439.38;5035462;28;20057;-90
2021/05/22 11:10:34;;;;;;;0.30;0.30;;;;;;;10.80;76.23;99436.78;5030996;28;20064;-88
2021/05/22 11:13:07;;;;;;;0.30;0.20;;;;;;;10.68;77.32;99436.53;5031124;28;20049;-89
2021/05/22 11:15:40;;;;;;;0.22;0.22;;;;;;;10.74;74.87;99445.38;5032893;28;20049;-87
2021/05/22 11:18:14;;;;;;;0.40;0.30;;;;;;;10.79;76.63;99448.78;5030279;28;20060;-88
2021/05/22 11:21:18;;;;;;;0.28;0.28;;;;;;;10.75;76.50;99447.00;5031567;28;20057;-87
2021/05/22 11:24:12;;;;;;;0.43;0.40;;;;;;;10.80;75.57;99441.41;5024626;28;20056;-90
2021/05/22 11:27:02;;;;;;;0.20;0.20;;;;;;;10.74;75.96;99437.22;5031081;28;20060;-90
2021/05/22 11:30:02;;;;;;;0.45;0.38;;;;;;;10.75;76.03;99447.78;5033866;28;20057;-89
2021/05/22 11:32:51;;;;;;;0.47;0.30;;;;;;;10.59;76.69;99427.53;5033342;28;21335;-90
2021/05/22 11:35:35;;;;;;;0.43;0.40;;;;;;;10.79;76.38;99448.78;5032862;28;20053;-90
2021/05/22 11:38:32;;;;;;;0.20;0.20;;;;;;;10.59;77.32;99452.00;5032848;28;20059;-90
2021/05/22 11:41:06;;;;;;;;;;;;;;;10.51;79.10;99445.41;5030383;28;20056;-90
2021/05/22 11:43:36;;;;;;;0.32;0.30;;;;;;;10.36;78.82;99457.44;5033271;28;19925;-90
2021/05/22 11:46:12;;;;;;;0.57;0.35;;;;;;;10.38;79.39;99455.22;5031588;28;20052;-89
2021/05/22 11:48:45;;;;;;;0.20;0.20;;;;;;;10.22;78.19;99452.03;5034379;28;20057;-89
2021/05/22 11:51:20;;;;;;;0.30;0.30;;;;;;;10.23;76.84;99459.06;5031594;28;20822;-87
2021/05/22 11:53:59;;;;;;;0.70;0.30;;;;;;;10.24;78.75;99460.69;5031726;28;20041;-88
2021/05/22 11:56:30;;;;;;;0.40;0.30;;;;;;;10.08;79.72;99452.09;5046849;28;20051;-88
2021/05/22 11:59:04;;;;;;;0.20;0.20;;;;;;;9.87;79.56;99411.78;5042977;28;20048;-89
2021/05/22 12:01:37;;;;;;;0.57;0.20;;;;;;;10.08;80.86;99473.00;5049857;28;20057;-91
2021/05/22 12:04:12;;;;;;;0.47;0.40;;;;;;;9.97;78.58;99472.41;5050866;28;20056;-90
2021/05/22 12:06:52;;;;;;;0.25;0.20;;;;;;;9.77;81.13;99447.31;5045888;28;20059;-87
2021/05/22 12:09:22;;;;;;;0.90;0.30;;;;;;;9.84;82.44;99469.44;5050296;28;20051;-89
2021/05/22 12:12:01;;;;;;;0.90;0.30;;;;;;;9.72;81.13;99458.28;5053673;28;20492;-89
2021/05/22 12:14:41;;;;;;;0.25;0.25;;;;;;;9.84;82.54;99468.63;5051652;28;20498;-87
2021/05/22 12:17:20;;;;;;;0.30;0.30;;;;;;;9.76;81.51;99464.72;5050037;28;20767;-89
2021/05/22 12:19:51;;;;;;;0.20;0.20;;;;;;;9.77;82.22;99469.03;5053378;28;20060;-89
2021/05/22 12:22:27;;;;;;;0.30;0.30;;;;;;;9.91;80.90;99471.72;5050274;28;20045;-89
2021/05/22 12:25:25;;;;;;;0.45;0.30;;;;;;;9.70;81.45;99469.44;5050511;28;20057;-88
2021/05/22 12:27:54;;;;;;;0.30;0.30;;;;;;;9.72;82.38;99468.34;5050792;28;20063;-88
2021/05/22 12:30:31;;;;;;;0.35;0.30;;;;;;;9.77;83.07;99479.13;5053827;28;20049;-88
2021/05/22 12:33:12;;;;;;;0.20;0.20;;;;;;;9.76;80.94;99466.63;5049793;28;20048;-89
2021/05/22 12:36:13;;;;;;;0.30;0.30;;;;;;;9.82;81.98;99476.31;5051462;28;20863;-88
2021/05/22 12:38:47;;;;;;;0.35;0.35;;;;;;;9.83;80.83;99484.13;5050442;28;20060;-90
2021/05/22 12:41:42;;;;;;;0.32;0.32;;;;;;;9.74;80.82;99485.16;5048422;28;20067;-87
2021/05/22 12:44:23;;;;;;;0.20;0.20;;;;;;;9.64;80.97;99469.84;5054281;28;20048;-90